sensor_id;sensor_type;location;lat;lon;timestamp;P1;durP1;ratioP1;P2;durP2;ratioP2
52742;SDS011;55583;53.012;6.556;2022-11-25T00:01:05;30.45;;;6.30;;
52742;SDS011;55583;53.012;6.556;2022-11-25T00:03:38;33.72;;;6.70;;
52742;SDS011;55583;53.012;6.556;2022-11-25T00:08:48;33.63;;;5.97;;
52742;SDS011;55583;53.012;6.556;2022-11-25T00:11:16;24.42;;;5.47;;
52742;SDS011;55583;53.012;6.556;2022-11-25T00:13:42;34.33;;;6.93;;
52742;SDS011;55583;53.012;6.556;2022-11-25T00:16:10;27.33;;;6.63;;
52742;SDS011;55583;53.012;6.556;2022-11-25T00:18:38;30.40;;;6.68;;
52742;SDS011;55583;53.012;6.556;2022-11-25T00:21:05;27.77;;;5.90;;
52742;SDS011;55583;53.012;6.556;2022-11-25T00:23:32;34.33;;;6.28;;
52742;SDS011;55583;53.012;6.556;2022-11-25T00:26:05;38.10;;;6.72;;
52742;SDS011;55583;53.012;6.556;2022-11-25T00:28:35;29.50;;;6.53;;
52742;SDS011;55583;53.012;6.556;2022-11-25T00:31:09;31.73;;;6.07;;
52742;SDS011;55583;53.012;6.556;2022-11-25T00:33:37;33.45;;;7.15;;
52742;SDS011;55583;53.012;6.556;2022-11-25T00:36:05;30.77;;;6.70;;
52742;SDS011;55583;53.012;6.556;2022-11-25T00:38:34;39.85;;;6.35;;
52742;SDS011;55583;53.012;6.556;2022-11-25T00:41:00;31.90;;;6.95;;
52742;SDS011;55583;53.012;6.556;2022-11-25T00:43:44;40.85;;;7.40;;
52742;SDS011;55583;53.012;6.556;2022-11-25T00:46:39;26.25;;;5.90;;
52742;SDS011;55583;53.012;6.556;2022-11-25T00:49:05;39.80;;;6.60;;
52742;SDS011;55583;53.012;6.556;2022-11-25T00:51:31;51.10;;;8.10;;
52742;SDS011;55583;53.012;6.556;2022-11-25T00:53:57;28.70;;;7.38;;
52742;SDS011;55583;53.012;6.556;2022-11-25T00:56:22;27.13;;;6.63;;
52742;SDS011;55583;53.012;6.556;2022-11-25T00:58:48;30.80;;;7.28;;
52742;SDS011;55583;53.012;6.556;2022-11-25T01:01:14;24.20;;;6.10;;
52742;SDS011;55583;53.012;6.556;2022-11-25T01:03:39;32.78;;;7.53;;
52742;SDS011;55583;53.012;6.556;2022-11-25T01:06:06;34.72;;;8.07;;
52742;SDS011;55583;53.012;6.556;2022-11-25T01:08:35;33.03;;;6.43;;
52742;SDS011;55583;53.012;6.556;2022-11-25T01:11:02;29.70;;;7.10;;
52742;SDS011;55583;53.012;6.556;2022-11-25T01:13:30;33.55;;;7.13;;
52742;SDS011;55583;53.012;6.556;2022-11-25T01:15:56;42.00;;;7.70;;
52742;SDS011;55583;53.012;6.556;2022-11-25T01:18:24;38.60;;;8.07;;
52742;SDS011;55583;53.012;6.556;2022-11-25T01:20:51;37.08;;;7.40;;
52742;SDS011;55583;53.012;6.556;2022-11-25T01:23:17;30.85;;;7.50;;
52742;SDS011;55583;53.012;6.556;2022-11-25T01:25:42;33.90;;;7.22;;
52742;SDS011;55583;53.012;6.556;2022-11-25T01:28:08;44.13;;;8.32;;
52742;SDS011;55583;53.012;6.556;2022-11-25T01:30:33;34.75;;;7.43;;
52742;SDS011;55583;53.012;6.556;2022-11-25T01:32:59;39.60;;;7.95;;
52742;SDS011;55583;53.012;6.556;2022-11-25T01:35:24;32.72;;;7.60;;
52742;SDS011;55583;53.012;6.556;2022-11-25T01:37:50;33.80;;;7.53;;
52742;SDS011;55583;53.012;6.556;2022-11-25T01:40:15;35.72;;;7.60;;
52742;SDS011;55583;53.012;6.556;2022-11-25T01:42:45;38.22;;;8.07;;
52742;SDS011;55583;53.012;6.556;2022-11-25T01:47:57;49.25;;;7.43;;
52742;SDS011;55583;53.012;6.556;2022-11-25T01:50:26;29.60;;;7.43;;
52742;SDS011;55583;53.012;6.556;2022-11-25T01:52:53;29.38;;;6.25;;
52742;SDS011;55583;53.012;6.556;2022-11-25T01:58:05;43.63;;;7.45;;
52742;SDS011;55583;53.012;6.556;2022-11-25T02:00:36;23.80;;;7.10;;
52742;SDS011;55583;53.012;6.556;2022-11-25T02:03:03;27.30;;;7.00;;
52742;SDS011;55583;53.012;6.556;2022-11-25T02:05:32;25.65;;;7.10;;
52742;SDS011;55583;53.012;6.556;2022-11-25T02:08:06;43.05;;;8.57;;
52742;SDS011;55583;53.012;6.556;2022-11-25T02:10:32;47.65;;;8.00;;
52742;SDS011;55583;53.012;6.556;2022-11-25T02:12:59;25.50;;;8.38;;
52742;SDS011;55583;53.012;6.556;2022-11-25T02:15:25;42.85;;;8.63;;
52742;SDS011;55583;53.012;6.556;2022-11-25T02:17:52;33.05;;;7.80;;
52742;SDS011;55583;53.012;6.556;2022-11-25T02:20:19;34.22;;;8.85;;
52742;SDS011;55583;53.012;6.556;2022-11-25T02:25:42;51.65;;;8.15;;
52742;SDS011;55583;53.012;6.556;2022-11-25T02:30:41;41.22;;;8.60;;
52742;SDS011;55583;53.012;6.556;2022-11-25T02:33:07;40.13;;;8.73;;
52742;SDS011;55583;53.012;6.556;2022-11-25T02:38:11;67.82;;;11.25;;
52742;SDS011;55583;53.012;6.556;2022-11-25T02:40:45;42.17;;;9.98;;
52742;SDS011;55583;53.012;6.556;2022-11-25T02:43:20;44.35;;;8.65;;
52742;SDS011;55583;53.012;6.556;2022-11-25T02:45:51;55.30;;;10.05;;
52742;SDS011;55583;53.012;6.556;2022-11-25T02:48:23;48.97;;;10.60;;
52742;SDS011;55583;53.012;6.556;2022-11-25T02:50:50;55.70;;;11.93;;
52742;SDS011;55583;53.012;6.556;2022-11-25T02:53:16;40.15;;;11.40;;
52742;SDS011;55583;53.012;6.556;2022-11-25T02:55:41;60.88;;;13.95;;
52742;SDS011;55583;53.012;6.556;2022-11-25T02:58:07;77.47;;;15.30;;
52742;SDS011;55583;53.012;6.556;2022-11-25T03:00:33;68.30;;;11.82;;
52742;SDS011;55583;53.012;6.556;2022-11-25T03:02:58;52.28;;;11.85;;
52742;SDS011;55583;53.012;6.556;2022-11-25T03:05:24;41.72;;;11.32;;
52742;SDS011;55583;53.012;6.556;2022-11-25T03:07:50;46.33;;;12.70;;
52742;SDS011;55583;53.012;6.556;2022-11-25T03:10:16;48.47;;;12.75;;
52742;SDS011;55583;53.012;6.556;2022-11-25T03:12:41;96.45;;;16.67;;
52742;SDS011;55583;53.012;6.556;2022-11-25T03:15:08;53.15;;;12.77;;
52742;SDS011;55583;53.012;6.556;2022-11-25T03:17:33;72.78;;;17.25;;
52742;SDS011;55583;53.012;6.556;2022-11-25T03:19:59;61.00;;;15.63;;
52742;SDS011;55583;53.012;6.556;2022-11-25T03:22:25;84.82;;;15.15;;
52742;SDS011;55583;53.012;6.556;2022-11-25T03:24:50;61.05;;;13.98;;
52742;SDS011;55583;53.012;6.556;2022-11-25T03:27:16;85.57;;;17.83;;
52742;SDS011;55583;53.012;6.556;2022-11-25T03:29:42;58.45;;;16.08;;
52742;SDS011;55583;53.012;6.556;2022-11-25T03:32:08;71.72;;;17.70;;
52742;SDS011;55583;53.012;6.556;2022-11-25T03:34:33;51.28;;;13.48;;
52742;SDS011;55583;53.012;6.556;2022-11-25T03:36:59;101.95;;;19.17;;
52742;SDS011;55583;53.012;6.556;2022-11-25T03:39:24;98.30;;;19.98;;
52742;SDS011;55583;53.012;6.556;2022-11-25T03:41:50;91.20;;;21.52;;
52742;SDS011;55583;53.012;6.556;2022-11-25T03:44:16;83.32;;;17.73;;
52742;SDS011;55583;53.012;6.556;2022-11-25T03:46:41;70.68;;;17.52;;
52742;SDS011;55583;53.012;6.556;2022-11-25T03:49:07;88.07;;;17.85;;
52742;SDS011;55583;53.012;6.556;2022-11-25T03:51:33;91.30;;;20.35;;
52742;SDS011;55583;53.012;6.556;2022-11-25T03:53:58;71.38;;;17.65;;
52742;SDS011;55583;53.012;6.556;2022-11-25T03:56:24;100.30;;;21.20;;
52742;SDS011;55583;53.012;6.556;2022-11-25T03:58:49;102.15;;;22.75;;
52742;SDS011;55583;53.012;6.556;2022-11-25T04:01:15;64.70;;;17.05;;
52742;SDS011;55583;53.012;6.556;2022-11-25T04:03:41;74.60;;;19.30;;
52742;SDS011;55583;53.012;6.556;2022-11-25T04:06:06;119.57;;;26.65;;
52742;SDS011;55583;53.012;6.556;2022-11-25T04:08:32;115.50;;;25.55;;
52742;SDS011;55583;53.012;6.556;2022-11-25T04:10:58;80.25;;;19.40;;
52742;SDS011;55583;53.012;6.556;2022-11-25T04:13:23;63.83;;;18.02;;
52742;SDS011;55583;53.012;6.556;2022-11-25T04:15:49;60.75;;;15.95;;
52742;SDS011;55583;53.012;6.556;2022-11-25T04:18:15;88.70;;;21.88;;
52742;SDS011;55583;53.012;6.556;2022-11-25T04:20:42;84.18;;;22.92;;
52742;SDS011;55583;53.012;6.556;2022-11-25T04:23:08;119.55;;;24.83;;
52742;SDS011;55583;53.012;6.556;2022-11-25T04:25:34;102.32;;;23.73;;
52742;SDS011;55583;53.012;6.556;2022-11-25T04:28:01;106.97;;;22.20;;
52742;SDS011;55583;53.012;6.556;2022-11-25T04:30:27;60.30;;;17.13;;
52742;SDS011;55583;53.012;6.556;2022-11-25T04:32:53;74.70;;;19.75;;
52742;SDS011;55583;53.012;6.556;2022-11-25T04:35:20;87.72;;;20.80;;
52742;SDS011;55583;53.012;6.556;2022-11-25T04:37:45;77.57;;;19.92;;
52742;SDS011;55583;53.012;6.556;2022-11-25T04:40:11;77.53;;;22.80;;
52742;SDS011;55583;53.012;6.556;2022-11-25T04:42:37;112.43;;;26.73;;
52742;SDS011;55583;53.012;6.556;2022-11-25T04:45:06;105.25;;;23.52;;
52742;SDS011;55583;53.012;6.556;2022-11-25T04:47:34;93.68;;;25.27;;
52742;SDS011;55583;53.012;6.556;2022-11-25T04:50:00;94.40;;;23.63;;
52742;SDS011;55583;53.012;6.556;2022-11-25T04:52:26;74.88;;;23.80;;
52742;SDS011;55583;53.012;6.556;2022-11-25T04:54:51;76.38;;;21.40;;
52742;SDS011;55583;53.012;6.556;2022-11-25T04:57:18;93.28;;;24.17;;
52742;SDS011;55583;53.012;6.556;2022-11-25T04:59:44;114.45;;;26.77;;
52742;SDS011;55583;53.012;6.556;2022-11-25T05:04:44;71.30;;;19.45;;
52742;SDS011;55583;53.012;6.556;2022-11-25T05:07:11;84.72;;;23.33;;
52742;SDS011;55583;53.012;6.556;2022-11-25T05:09:37;77.75;;;22.02;;
52742;SDS011;55583;53.012;6.556;2022-11-25T05:12:04;96.93;;;23.38;;
52742;SDS011;55583;53.012;6.556;2022-11-25T05:14:30;81.95;;;24.90;;
52742;SDS011;55583;53.012;6.556;2022-11-25T05:16:56;120.13;;;30.17;;
52742;SDS011;55583;53.012;6.556;2022-11-25T05:19:22;90.90;;;22.33;;
52742;SDS011;55583;53.012;6.556;2022-11-25T05:21:47;95.72;;;24.63;;
52742;SDS011;55583;53.012;6.556;2022-11-25T05:24:13;89.85;;;22.50;;
52742;SDS011;55583;53.012;6.556;2022-11-25T05:26:39;108.47;;;25.95;;
52742;SDS011;55583;53.012;6.556;2022-11-25T05:29:04;110.72;;;27.17;;
52742;SDS011;55583;53.012;6.556;2022-11-25T05:31:30;60.13;;;20.92;;
52742;SDS011;55583;53.012;6.556;2022-11-25T05:33:58;131.15;;;31.08;;
52742;SDS011;55583;53.012;6.556;2022-11-25T05:36:24;79.47;;;21.70;;
52742;SDS011;55583;53.012;6.556;2022-11-25T05:38:50;70.85;;;21.73;;
52742;SDS011;55583;53.012;6.556;2022-11-25T05:41:16;96.20;;;25.88;;
52742;SDS011;55583;53.012;6.556;2022-11-25T05:43:41;87.15;;;24.17;;
52742;SDS011;55583;53.012;6.556;2022-11-25T05:46:07;115.55;;;29.58;;
52742;SDS011;55583;53.012;6.556;2022-11-25T05:48:33;101.75;;;24.35;;
52742;SDS011;55583;53.012;6.556;2022-11-25T05:50:59;102.68;;;23.52;;
52742;SDS011;55583;53.012;6.556;2022-11-25T05:53:25;100.82;;;27.23;;
52742;SDS011;55583;53.012;6.556;2022-11-25T05:55:58;105.10;;;25.67;;
52742;SDS011;55583;53.012;6.556;2022-11-25T05:58:26;101.10;;;24.42;;
52742;SDS011;55583;53.012;6.556;2022-11-25T06:00:53;74.85;;;22.02;;
52742;SDS011;55583;53.012;6.556;2022-11-25T06:03:22;78.50;;;22.85;;
52742;SDS011;55583;53.012;6.556;2022-11-25T06:05:51;93.50;;;26.23;;
52742;SDS011;55583;53.012;6.556;2022-11-25T06:08:17;134.75;;;30.70;;
52742;SDS011;55583;53.012;6.556;2022-11-25T06:10:42;74.38;;;22.20;;
52742;SDS011;55583;53.012;6.556;2022-11-25T06:13:08;115.70;;;27.15;;
52742;SDS011;55583;53.012;6.556;2022-11-25T06:15:34;105.85;;;23.70;;
52742;SDS011;55583;53.012;6.556;2022-11-25T06:18:04;86.30;;;22.48;;
52742;SDS011;55583;53.012;6.556;2022-11-25T06:20:29;77.00;;;21.67;;
52742;SDS011;55583;53.012;6.556;2022-11-25T06:22:56;90.30;;;21.40;;
52742;SDS011;55583;53.012;6.556;2022-11-25T06:25:22;83.07;;;20.00;;
52742;SDS011;55583;53.012;6.556;2022-11-25T06:27:49;112.90;;;25.75;;
52742;SDS011;55583;53.012;6.556;2022-11-25T06:30:15;94.32;;;20.65;;
52742;SDS011;55583;53.012;6.556;2022-11-25T06:32:41;77.40;;;19.65;;
52742;SDS011;55583;53.012;6.556;2022-11-25T06:35:07;62.92;;;17.65;;
52742;SDS011;55583;53.012;6.556;2022-11-25T06:37:33;77.00;;;19.73;;
52742;SDS011;55583;53.012;6.556;2022-11-25T06:39:59;50.38;;;15.18;;
52742;SDS011;55583;53.012;6.556;2022-11-25T06:42:24;79.03;;;17.27;;
52742;SDS011;55583;53.012;6.556;2022-11-25T06:44:50;54.13;;;14.38;;
52742;SDS011;55583;53.012;6.556;2022-11-25T06:47:16;56.15;;;16.70;;
52742;SDS011;55583;53.012;6.556;2022-11-25T06:49:41;50.40;;;14.80;;
52742;SDS011;55583;53.012;6.556;2022-11-25T06:52:07;90.75;;;19.38;;
52742;SDS011;55583;53.012;6.556;2022-11-25T06:54:33;61.35;;;15.65;;
52742;SDS011;55583;53.012;6.556;2022-11-25T06:56:59;82.70;;;18.65;;
52742;SDS011;55583;53.012;6.556;2022-11-25T06:59:24;51.30;;;15.13;;
52742;SDS011;55583;53.012;6.556;2022-11-25T07:01:50;51.38;;;12.38;;
52742;SDS011;55583;53.012;6.556;2022-11-25T07:04:16;54.47;;;14.57;;
52742;SDS011;55583;53.012;6.556;2022-11-25T07:06:42;57.85;;;12.68;;
52742;SDS011;55583;53.012;6.556;2022-11-25T07:09:07;39.55;;;9.90;;
52742;SDS011;55583;53.012;6.556;2022-11-25T07:11:34;49.20;;;9.90;;
52742;SDS011;55583;53.012;6.556;2022-11-25T07:14:03;55.60;;;12.85;;
52742;SDS011;55583;53.012;6.556;2022-11-25T07:16:36;38.50;;;10.13;;
52742;SDS011;55583;53.012;6.556;2022-11-25T07:19:03;41.83;;;10.25;;
52742;SDS011;55583;53.012;6.556;2022-11-25T07:21:29;50.03;;;10.52;;
52742;SDS011;55583;53.012;6.556;2022-11-25T07:23:57;48.13;;;9.75;;
52742;SDS011;55583;53.012;6.556;2022-11-25T07:26:28;26.92;;;8.23;;
52742;SDS011;55583;53.012;6.556;2022-11-25T07:29:00;40.35;;;9.10;;
52742;SDS011;55583;53.012;6.556;2022-11-25T07:31:29;49.25;;;10.57;;
52742;SDS011;55583;53.012;6.556;2022-11-25T07:33:57;59.35;;;11.65;;
52742;SDS011;55583;53.012;6.556;2022-11-25T07:36:25;34.45;;;9.23;;
52742;SDS011;55583;53.012;6.556;2022-11-25T07:38:51;42.20;;;9.32;;
52742;SDS011;55583;53.012;6.556;2022-11-25T07:41:18;49.78;;;10.65;;
52742;SDS011;55583;53.012;6.556;2022-11-25T07:43:58;41.22;;;10.38;;
52742;SDS011;55583;53.012;6.556;2022-11-25T07:48:56;46.35;;;10.85;;
52742;SDS011;55583;53.012;6.556;2022-11-25T07:51:26;54.13;;;10.63;;
52742;SDS011;55583;53.012;6.556;2022-11-25T07:54:00;41.08;;;10.48;;
52742;SDS011;55583;53.012;6.556;2022-11-25T07:56:27;34.97;;;8.93;;
52742;SDS011;55583;53.012;6.556;2022-11-25T07:58:54;45.92;;;10.70;;
52742;SDS011;55583;53.012;6.556;2022-11-25T08:01:20;35.05;;;9.57;;
52742;SDS011;55583;53.012;6.556;2022-11-25T08:03:46;34.05;;;8.85;;
52742;SDS011;55583;53.012;6.556;2022-11-25T08:06:14;33.92;;;10.07;;
52742;SDS011;55583;53.012;6.556;2022-11-25T08:08:42;28.58;;;7.90;;
52742;SDS011;55583;53.012;6.556;2022-11-25T08:11:18;28.30;;;8.00;;
52742;SDS011;55583;53.012;6.556;2022-11-25T08:14:03;32.50;;;8.43;;
52742;SDS011;55583;53.012;6.556;2022-11-25T08:16:29;31.13;;;9.32;;
52742;SDS011;55583;53.012;6.556;2022-11-25T08:18:56;34.33;;;10.05;;
52742;SDS011;55583;53.012;6.556;2022-11-25T08:21:22;39.08;;;9.10;;
52742;SDS011;55583;53.012;6.556;2022-11-25T08:23:48;47.65;;;10.15;;
52742;SDS011;55583;53.012;6.556;2022-11-25T08:26:21;48.58;;;10.45;;
52742;SDS011;55583;53.012;6.556;2022-11-25T08:28:50;34.28;;;8.43;;
52742;SDS011;55583;53.012;6.556;2022-11-25T08:31:20;34.42;;;9.10;;
52742;SDS011;55583;53.012;6.556;2022-11-25T08:33:48;29.88;;;8.82;;
52742;SDS011;55583;53.012;6.556;2022-11-25T08:36:15;36.55;;;9.10;;
52742;SDS011;55583;53.012;6.556;2022-11-25T08:38:41;23.48;;;7.60;;
52742;SDS011;55583;53.012;6.556;2022-11-25T08:41:09;40.80;;;9.02;;
52742;SDS011;55583;53.012;6.556;2022-11-25T08:43:39;28.65;;;9.20;;
52742;SDS011;55583;53.012;6.556;2022-11-25T08:46:15;31.98;;;9.18;;
52742;SDS011;55583;53.012;6.556;2022-11-25T08:48:43;39.45;;;9.18;;
52742;SDS011;55583;53.012;6.556;2022-11-25T08:51:11;37.50;;;9.25;;
52742;SDS011;55583;53.012;6.556;2022-11-25T08:53:39;26.25;;;8.13;;
52742;SDS011;55583;53.012;6.556;2022-11-25T08:56:06;37.83;;;9.90;;
52742;SDS011;55583;53.012;6.556;2022-11-25T08:58:33;35.08;;;9.55;;
52742;SDS011;55583;53.012;6.556;2022-11-25T09:00:59;29.23;;;9.55;;
52742;SDS011;55583;53.012;6.556;2022-11-25T09:03:25;37.80;;;11.02;;
52742;SDS011;55583;53.012;6.556;2022-11-25T09:05:52;37.50;;;8.57;;
52742;SDS011;55583;53.012;6.556;2022-11-25T09:08:18;31.60;;;9.75;;
52742;SDS011;55583;53.012;6.556;2022-11-25T09:10:44;39.25;;;9.88;;
52742;SDS011;55583;53.012;6.556;2022-11-25T09:13:10;28.95;;;9.75;;
52742;SDS011;55583;53.012;6.556;2022-11-25T09:15:36;40.72;;;10.98;;
52742;SDS011;55583;53.012;6.556;2022-11-25T09:18:03;36.45;;;9.88;;
52742;SDS011;55583;53.012;6.556;2022-11-25T09:20:32;40.80;;;9.45;;
52742;SDS011;55583;53.012;6.556;2022-11-25T09:22:59;31.42;;;9.98;;
52742;SDS011;55583;53.012;6.556;2022-11-25T09:25:25;32.67;;;9.80;;
52742;SDS011;55583;53.012;6.556;2022-11-25T09:27:52;40.15;;;11.68;;
52742;SDS011;55583;53.012;6.556;2022-11-25T09:30:17;33.45;;;10.35;;
52742;SDS011;55583;53.012;6.556;2022-11-25T09:32:44;24.63;;;8.30;;
52742;SDS011;55583;53.012;6.556;2022-11-25T09:35:13;30.40;;;8.55;;
52742;SDS011;55583;53.012;6.556;2022-11-25T09:37:38;24.52;;;8.00;;
52742;SDS011;55583;53.012;6.556;2022-11-25T09:40:05;29.38;;;9.60;;
52742;SDS011;55583;53.012;6.556;2022-11-25T09:45:32;37.95;;;10.52;;
52742;SDS011;55583;53.012;6.556;2022-11-25T09:51:18;27.08;;;8.73;;
52742;SDS011;55583;53.012;6.556;2022-11-25T09:54:13;20.55;;;8.00;;
52742;SDS011;55583;53.012;6.556;2022-11-25T09:56:47;21.27;;;7.32;;
52742;SDS011;55583;53.012;6.556;2022-11-25T09:59:38;22.27;;;7.35;;
52742;SDS011;55583;53.012;6.556;2022-11-25T10:02:11;26.65;;;6.75;;
52742;SDS011;55583;53.012;6.556;2022-11-25T10:04:43;25.05;;;7.72;;
52742;SDS011;55583;53.012;6.556;2022-11-25T10:07:17;25.80;;;8.25;;
52742;SDS011;55583;53.012;6.556;2022-11-25T10:09:46;19.98;;;8.70;;
52742;SDS011;55583;53.012;6.556;2022-11-25T10:12:16;21.15;;;8.75;;
52742;SDS011;55583;53.012;6.556;2022-11-25T10:14:49;22.50;;;7.65;;
52742;SDS011;55583;53.012;6.556;2022-11-25T10:17:32;14.70;;;8.13;;
52742;SDS011;55583;53.012;6.556;2022-11-25T10:20:05;20.73;;;6.75;;
52742;SDS011;55583;53.012;6.556;2022-11-25T10:22:49;16.10;;;7.25;;
52742;SDS011;55583;53.012;6.556;2022-11-25T10:25:20;18.65;;;6.63;;
52742;SDS011;55583;53.012;6.556;2022-11-25T10:30:26;28.05;;;7.35;;
52742;SDS011;55583;53.012;6.556;2022-11-25T10:33:19;17.42;;;6.50;;
52742;SDS011;55583;53.012;6.556;2022-11-25T10:35:56;14.98;;;6.05;;
52742;SDS011;55583;53.012;6.556;2022-11-25T10:38:38;16.13;;;6.18;;
52742;SDS011;55583;53.012;6.556;2022-11-25T10:41:14;16.35;;;6.20;;
52742;SDS011;55583;53.012;6.556;2022-11-25T10:51:35;24.63;;;6.00;;
52742;SDS011;55583;53.012;6.556;2022-11-25T10:54:07;13.57;;;6.22;;
52742;SDS011;55583;53.012;6.556;2022-11-25T10:59:12;20.27;;;5.30;;
52742;SDS011;55583;53.012;6.556;2022-11-25T11:01:45;14.43;;;4.65;;
52742;SDS011;55583;53.012;6.556;2022-11-25T11:04:11;15.50;;;4.70;;
52742;SDS011;55583;53.012;6.556;2022-11-25T11:06:44;15.33;;;4.67;;
52742;SDS011;55583;53.012;6.556;2022-11-25T11:11:55;14.55;;;4.60;;
52742;SDS011;55583;53.012;6.556;2022-11-25T11:14:21;20.90;;;5.15;;
52742;SDS011;55583;53.012;6.556;2022-11-25T11:16:51;17.45;;;5.88;;
52742;SDS011;55583;53.012;6.556;2022-11-25T11:19:21;13.55;;;3.65;;
52742;SDS011;55583;53.012;6.556;2022-11-25T11:21:49;16.02;;;4.03;;
52742;SDS011;55583;53.012;6.556;2022-11-25T11:27:02;13.55;;;3.75;;
52742;SDS011;55583;53.012;6.556;2022-11-25T11:29:30;20.00;;;4.55;;
52742;SDS011;55583;53.012;6.556;2022-11-25T11:31:59;15.13;;;3.90;;
52742;SDS011;55583;53.012;6.556;2022-11-25T11:42:44;16.98;;;3.85;;
52742;SDS011;55583;53.012;6.556;2022-11-25T11:45:22;18.75;;;4.05;;
52742;SDS011;55583;53.012;6.556;2022-11-25T11:50:59;13.65;;;3.53;;
52742;SDS011;55583;53.012;6.556;2022-11-25T11:56:32;16.27;;;4.40;;
52742;SDS011;55583;53.012;6.556;2022-11-25T12:04:57;16.40;;;3.95;;
52742;SDS011;55583;53.012;6.556;2022-11-25T12:10:16;22.45;;;4.07;;
52742;SDS011;55583;53.012;6.556;2022-11-25T12:12:48;15.65;;;3.78;;
52742;SDS011;55583;53.012;6.556;2022-11-25T12:20:52;21.63;;;4.60;;
52742;SDS011;55583;53.012;6.556;2022-11-25T12:26:19;12.23;;;3.83;;
52742;SDS011;55583;53.012;6.556;2022-11-25T12:28:52;17.45;;;4.30;;
52742;SDS011;55583;53.012;6.556;2022-11-25T12:31:23;20.23;;;3.88;;
52742;SDS011;55583;53.012;6.556;2022-11-25T12:36:43;14.48;;;4.10;;
52742;SDS011;55583;53.012;6.556;2022-11-25T12:39:23;19.02;;;3.83;;
52742;SDS011;55583;53.012;6.556;2022-11-25T12:41:57;21.77;;;4.10;;
52742;SDS011;55583;53.012;6.556;2022-11-25T12:47:21;18.35;;;4.45;;
52742;SDS011;55583;53.012;6.556;2022-11-25T12:49:48;13.43;;;3.53;;
52742;SDS011;55583;53.012;6.556;2022-11-25T13:01:07;19.65;;;2.92;;
52742;SDS011;55583;53.012;6.556;2022-11-25T13:12:33;21.58;;;3.55;;
52742;SDS011;55583;53.012;6.556;2022-11-25T13:15:28;20.40;;;4.22;;
52742;SDS011;55583;53.012;6.556;2022-11-25T13:18:12;24.02;;;4.28;;
52742;SDS011;55583;53.012;6.556;2022-11-25T13:20:41;23.45;;;3.88;;
52742;SDS011;55583;53.012;6.556;2022-11-25T13:25:38;20.23;;;3.78;;
52742;SDS011;55583;53.012;6.556;2022-11-25T13:36:16;22.85;;;3.92;;
52742;SDS011;55583;53.012;6.556;2022-11-25T13:47:20;22.27;;;4.20;;
52742;SDS011;55583;53.012;6.556;2022-11-25T13:49:30;20.70;;;3.80;;
52742;SDS011;55583;53.012;6.556;2022-11-25T13:54:45;23.90;;;4.00;;
52742;SDS011;55583;53.012;6.556;2022-11-25T13:57:24;16.73;;;3.80;;
52742;SDS011;55583;53.012;6.556;2022-11-25T14:00:00;15.32;;;3.60;;
52742;SDS011;55583;53.012;6.556;2022-11-25T14:30:48;32.65;;;4.88;;
52742;SDS011;55583;53.012;6.556;2022-11-25T14:33:18;29.02;;;4.25;;
52742;SDS011;55583;53.012;6.556;2022-11-25T14:35:49;28.30;;;3.97;;
52742;SDS011;55583;53.012;6.556;2022-11-25T14:38:35;31.17;;;4.10;;
52742;SDS011;55583;53.012;6.556;2022-11-25T14:41:07;19.83;;;3.92;;
52742;SDS011;55583;53.012;6.556;2022-11-25T14:43:46;25.48;;;4.72;;
52742;SDS011;55583;53.012;6.556;2022-11-25T14:46:17;25.38;;;4.22;;
52742;SDS011;55583;53.012;6.556;2022-11-25T14:48:51;31.88;;;4.88;;
52742;SDS011;55583;53.012;6.556;2022-11-25T14:51:20;24.38;;;4.25;;
52742;SDS011;55583;53.012;6.556;2022-11-25T14:53:48;18.40;;;3.25;;
52742;SDS011;55583;53.012;6.556;2022-11-25T14:56:18;22.13;;;4.40;;
52742;SDS011;55583;53.012;6.556;2022-11-25T15:01:22;35.67;;;4.38;;
52742;SDS011;55583;53.012;6.556;2022-11-25T15:03:50;35.53;;;4.63;;
52742;SDS011;55583;53.012;6.556;2022-11-25T15:06:27;23.45;;;3.67;;
52742;SDS011;55583;53.012;6.556;2022-11-25T15:08:57;18.40;;;4.47;;
52742;SDS011;55583;53.012;6.556;2022-11-25T15:11:26;26.30;;;3.97;;
52742;SDS011;55583;53.012;6.556;2022-11-25T15:14:02;29.77;;;4.78;;
52742;SDS011;55583;53.012;6.556;2022-11-25T15:18:58;14.82;;;3.40;;
52742;SDS011;55583;53.012;6.556;2022-11-25T15:21:30;22.48;;;3.85;;
52742;SDS011;55583;53.012;6.556;2022-11-25T15:24:02;27.58;;;4.45;;
52742;SDS011;55583;53.012;6.556;2022-11-25T15:26:30;30.88;;;4.43;;
52742;SDS011;55583;53.012;6.556;2022-11-25T15:28:58;26.17;;;4.30;;
52742;SDS011;55583;53.012;6.556;2022-11-25T15:31:28;35.17;;;5.70;;
52742;SDS011;55583;53.012;6.556;2022-11-25T15:33:57;35.03;;;6.40;;
52742;SDS011;55583;53.012;6.556;2022-11-25T15:36:26;42.35;;;4.50;;
52742;SDS011;55583;53.012;6.556;2022-11-25T15:38:52;26.10;;;4.20;;
52742;SDS011;55583;53.012;6.556;2022-11-25T15:41:33;30.23;;;5.38;;
52742;SDS011;55583;53.012;6.556;2022-11-25T15:44:01;27.50;;;4.88;;
52742;SDS011;55583;53.012;6.556;2022-11-25T15:46:28;29.23;;;6.32;;
52742;SDS011;55583;53.012;6.556;2022-11-25T15:48:58;42.70;;;7.88;;
52742;SDS011;55583;53.012;6.556;2022-11-25T15:54:30;42.35;;;6.03;;
52742;SDS011;55583;53.012;6.556;2022-11-25T16:10:22;43.08;;;6.50;;
52742;SDS011;55583;53.012;6.556;2022-11-25T16:18:31;57.03;;;13.13;;
52742;SDS011;55583;53.012;6.556;2022-11-25T16:21:24;46.50;;;16.13;;
52742;SDS011;55583;53.012;6.556;2022-11-25T16:26:33;57.55;;;13.90;;
52742;SDS011;55583;53.012;6.556;2022-11-25T16:29:13;43.13;;;10.10;;
52742;SDS011;55583;53.012;6.556;2022-11-25T16:31:41;35.60;;;9.13;;
52742;SDS011;55583;53.012;6.556;2022-11-25T16:34:17;43.38;;;7.97;;
52742;SDS011;55583;53.012;6.556;2022-11-25T16:36:44;45.50;;;8.93;;
52742;SDS011;55583;53.012;6.556;2022-11-25T16:39:10;34.17;;;7.38;;
52742;SDS011;55583;53.012;6.556;2022-11-25T16:41:37;51.70;;;8.98;;
52742;SDS011;55583;53.012;6.556;2022-11-25T16:44:04;34.60;;;8.00;;
52742;SDS011;55583;53.012;6.556;2022-11-25T16:46:45;34.55;;;8.35;;
52742;SDS011;55583;53.012;6.556;2022-11-25T16:49:11;44.88;;;9.05;;
52742;SDS011;55583;53.012;6.556;2022-11-25T16:51:38;42.85;;;9.32;;
52742;SDS011;55583;53.012;6.556;2022-11-25T16:54:04;39.50;;;9.07;;
52742;SDS011;55583;53.012;6.556;2022-11-25T16:56:29;39.83;;;8.60;;
52742;SDS011;55583;53.012;6.556;2022-11-25T16:58:56;41.42;;;11.10;;
52742;SDS011;55583;53.012;6.556;2022-11-25T17:01:23;51.45;;;11.30;;
52742;SDS011;55583;53.012;6.556;2022-11-25T17:03:51;48.55;;;12.32;;
52742;SDS011;55583;53.012;6.556;2022-11-25T17:06:20;54.20;;;17.63;;
52742;SDS011;55583;53.012;6.556;2022-11-25T17:08:48;46.55;;;12.68;;
52742;SDS011;55583;53.012;6.556;2022-11-25T17:13:44;44.15;;;11.45;;
52742;SDS011;55583;53.012;6.556;2022-11-25T17:16:15;48.67;;;11.43;;
52742;SDS011;55583;53.012;6.556;2022-11-25T17:18:46;45.50;;;12.60;;
52742;SDS011;55583;53.012;6.556;2022-11-25T17:21:14;46.20;;;11.70;;
52742;SDS011;55583;53.012;6.556;2022-11-25T17:23:41;51.67;;;10.38;;
52742;SDS011;55583;53.012;6.556;2022-11-25T17:26:15;57.92;;;11.88;;
52742;SDS011;55583;53.012;6.556;2022-11-25T17:28:50;44.03;;;10.10;;
52742;SDS011;55583;53.012;6.556;2022-11-25T17:31:20;45.17;;;14.23;;
52742;SDS011;55583;53.012;6.556;2022-11-25T17:33:50;38.35;;;10.65;;
52742;SDS011;55583;53.012;6.556;2022-11-25T17:36:15;57.38;;;15.00;;
52742;SDS011;55583;53.012;6.556;2022-11-25T17:38:41;53.05;;;15.77;;
52742;SDS011;55583;53.012;6.556;2022-11-25T17:41:17;51.22;;;12.35;;